Date,TemperatureHighF,TemperatureAvgF,TemperatureLowF,DewpointHighF,DewpointAvgF,DewpointLowF,HumidityHigh,HumidityAvg,HumidityLow,PressureMaxIn,PressureMinIn,WindSpeedMaxMPH,WindSpeedAvgMPH,GustSpeedMaxMPH,PrecipitationSumIn
2013-1-1,44.0,40.1,36.0,30.0,28.1,25.0,73,63,51,0.00,40.00,4,3,12,0.00
2013-1-2,37.0,32.0,27.0,25.0,17.8,12.0,70,56,40,0.00,40.00,5,3,12,0.00
2013-1-3,38.0,29.2,19.0,19.0,16.9,15.0,85,61,42,0.00,40.00,4,2,10,0.00
2013-1-4,44.0,36.1,30.0,24.0,20.6,18.0,62,53,44,0.00,40.00,6,4,16,0.00
2013-1-5,44.0,36.4,31.0,26.0,21.3,19.0,70,55,42,0.00,40.00,5,3,15,0.00
2013-1-6,49.0,40.4,31.0,28.0,26.8,24.0,80,60,39,0.00,40.00,4,2,11,0.00
2013-1-7,45.0,38.9,27.0,30.0,25.6,22.0,80,59,46,0.00,40.00,4,3,12,0.00
2013-1-8,51.0,35.1,25.0,32.0,26.7,22.0,89,73,42,0.00,40.00,3,1,7,0.00
2013-1-9,46.0,34.3,26.0,37.0,29.2,23.0,91,83,54,0.00,40.00,3,1,10,0.00
2013-1-10,51.0,44.6,39.0,30.0,27.5,23.0,71,52,37,0.00,40.00,4,2,9,0.00
2013-1-11,46.0,42.5,38.0,42.0,34.3,27.0,96,74,55,0.00,40.00,6,3,12,0.13
2013-1-12,58.0,46.9,41.0,48.0,43.7,40.0,98,89,69,0.00,40.00,4,2,7,0.06
2013-1-13,57.0,51.0,43.0,53.0,48.4,41.0,98,91,77,0.00,40.00,5,3,10,0.00
2013-1-14,53.0,49.5,40.0,51.0,42.7,30.0,98,80,53,0.00,40.00,5,3,15,0.16
2013-1-15,43.0,39.7,36.0,39.0,36.2,30.0,96,87,71,0.00,40.00,4,2,7,0.46
2013-1-16,39.0,37.2,35.0,38.0,36.0,34.0,97,95,92,0.00,40.00,5,2,10,0.99
2013-1-17,42.0,40.0,36.0,39.0,31.3,26.0,97,72,55,0.00,40.00,5,2,11,0.01
2013-1-18,37.0,33.7,30.0,32.0,17.0,8.0,85,51,32,0.00,40.00,6,4,21,0.00
2013-1-19,58.0,40.0,28.0,27.0,23.4,16.0,75,54,25,0.00,40.00,4,2,11,0.00
2013-1-20,56.0,42.7,32.0,30.0,19.6,8.0,62,42,18,0.00,40.00,7,4,20,0.00
2013-1-21,41.0,32.9,27.0,20.0,15.9,10.0,64,49,37,0.00,40.00,6,3,20,0.00
2013-1-22,29.0,20.6,15.0,10.0,-1.2,-6.0,51,38,26,0.00,40.00,7,5,16,0.00
2013-1-23,27.0,20.0,13.0,3.0,-0.1,-4.0,65,42,25,0.00,40.00,5,3,14,0.00
2013-1-24,29.0,22.4,16.0,15.0,7.7,-2.0,81,55,33,0.00,40.00,9,4,18,0.04
2013-1-25,24.0,20.2,16.0,17.0,7.4,-1.0,82,59,39,0.00,40.00,5,2,12,0.01
2013-1-26,35.0,26.3,20.0,25.0,20.3,16.0,89,79,59,0.00,40.00,4,1,7,0.09
2013-1-27,38.0,30.0,22.0,22.0,17.2,14.0,82,59,43,0.00,40.00,3,2,7,0.01
2013-1-28,41.0,36.6,33.0,39.0,32.1,21.0,95,84,60,0.00,40.00,3,2,8,0.21
2013-1-29,69.0,55.5,41.0,54.0,48.0,39.0,94,77,58,0.00,40.00,5,2,11,0.01
2013-1-30,69.0,58.2,44.0,61.0,53.8,40.0,98,86,72,0.00,40.00,7,4,21,1.38
2013-1-31,56.0,38.1,29.0,55.0,20.1,9.0,98,49,39,0.00,40.00,9,6,21,1.29
2013-2-1,32.0,26.9,20.0,24.0,10.8,3.0,85,51,37,0.00,40.00,8,5,22,0.01
2013-2-2,29.0,23.6,15.0,23.0,11.9,3.0,82,62,43,0.00,40.00,5,2,10,0.01
2013-2-3,38.0,30.1,23.0,29.0,24.1,16.0,89,79,54,0.00,40.00,5,2,18,0.00
2013-2-4,38.0,31.3,24.0,29.0,15.9,11.0,86,54,37,0.00,40.00,7,3,19,0.00
2013-2-5,39.0,34.6,32.0,34.0,30.4,28.0,93,85,77,0.00,40.00,2,2,5,0.02
2013-2-6,43.0,35.6,28.0,32.0,26.8,20.0,93,72,50,0.00,40.00,5,2,11,0.01
2013-2-7,40.0,32.7,24.0,27.0,22.2,20.0,85,67,48,0.00,40.00,6,3,14,0.00
2013-2-8,40.0,37.2,35.0,36.0,30.1,22.0,90,76,58,0.00,40.00,8,3,23,0.01
2013-2-9,42.0,33.7,26.0,23.0,17.0,12.0,64,51,33,0.00,40.00,8,5,25,0.01
2013-2-10,46.0,34.6,19.0,22.0,16.0,13.0,83,50,26,0.00,40.00,6,3,13,0.00
2013-2-11,59.0,47.5,37.0,48.0,36.5,19.0,93,70,25,0.00,40.00,6,4,16,0.13
2013-2-12,57.0,46.7,35.0,31.0,25.8,23.0,69,45,30,0.00,40.00,7,4,19,0.01
2013-2-13,44.0,34.8,28.0,33.0,27.2,24.0,99,75,51,0.00,40.00,5,2,10,0.22
2013-2-14,51.0,38.3,30.0,33.0,29.0,24.0,99,72,43,0.00,40.00,4,2,11,0.12
2013-2-15,58.0,38.2,30.0,37.0,30.6,24.0,99,76,39,0.00,40.00,5,2,14,0.17
2013-2-16,37.0,32.6,28.0,35.0,26.2,16.0,100,78,53,0.00,40.00,5,3,13,0.13
2013-2-17,32.0,25.9,21.0,17.0,11.9,4.0,82,56,40,0.00,40.00,7,5,21,0.00
2013-2-18,40.0,28.0,14.0,17.0,8.6,4.0,68,45,26,0.00,40.00,7,3,15,0.00
2013-2-19,50.0,38.5,29.0,40.0,25.6,15.0,87,61,42,0.00,40.00,6,4,19,0.05
2013-2-20,35.0,29.0,24.0,20.0,12.5,8.0,55,49,44,0.00,40.00,7,5,21,0.01
2013-2-21,39.0,27.9,23.0,16.0,12.7,9.0,68,53,38,0.00,40.00,8,5,19,0.00
2013-2-22,31.0,28.4,24.0,28.0,22.2,16.0,88,77,58,0.00,40.00,5,3,12,0.02
2013-2-23,45.0,36.3,31.0,39.0,33.3,28.0,95,89,76,0.00,40.00,4,2,10,0.01
2013-2-24,51.0,38.5,28.0,38.0,28.9,17.0,97,71,36,0.00,40.00,7,4,18,0.00
2013-2-25,46.0,33.6,21.0,25.0,20.2,17.0,88,61,36,0.00,40.00,4,2,9,0.00
2013-2-26,40.0,34.8,27.0,38.0,28.6,20.0,99,79,60,0.00,40.00,7,3,21,0.79
2013-2-27,56.0,42.8,36.0,45.0,35.7,31.0,99,78,46,0.00,40.00,6,3,13,0.61
2013-2-28,45.0,40.3,34.0,34.0,28.1,25.0,73,62,50,0.00,40.00,5,3,12,0.00
2013-3-1,44.0,38.4,32.0,32.0,27.4,22.0,78,65,47,0.00,40.00,6,4,16,0.00
2013-3-2,37.0,32.3,29.0,23.0,20.9,19.0,72,63,50,0.00,40.00,6,4,14,0.00
2013-3-3,40.0,32.6,28.0,22.0,18.4,15.0,75,57,39,0.00,40.00,7,5,18,0.00
2013-3-4,43.0,32.9,26.0,19.0,15.6,13.0,61,50,34,0.00,40.00,7,5,20,0.00
2013-3-5,48.0,36.5,23.0,23.0,17.2,5.0,80,49,17,0.00,40.00,7,3,16,0.00
2013-3-6,40.0,36.2,32.0,34.0,31.3,22.0,99,83,49,0.00,40.00,10,6,25,0.42
2013-3-7,50.0,39.5,32.0,29.0,28.0,27.0,82,65,43,0.00,40.00,7,4,20,0.01
2013-3-8,51.0,40.4,32.0,29.0,26.3,24.0,80,59,39,0.00,40.00,11,6,25,0.00
2013-3-9,59.0,42.3,26.0,28.0,23.4,16.0,84,53,20,0.00,40.00,4,2,9,0.00
2013-3-10,64.0,47.5,27.0,33.0,25.3,20.0,89,49,22,0.00,40.00,6,3,17,0.00
2013-3-11,60.0,51.0,42.0,48.0,37.2,20.0,84,61,32,0.00,40.00,7,5,19,0.00
2013-3-12,57.0,50.6,40.0,53.0,42.1,28.0,98,74,55,0.00,40.00,8,5,22,0.94
2013-3-13,51.0,39.4,28.0,31.0,24.6,18.0,86,57,32,0.00,40.00,7,4,17,0.05
2013-3-14,47.0,35.7,30.0,19.0,16.4,13.0,58,46,30,0.00,40.00,8,6,22,0.00
2013-3-15,58.0,41.9,26.0,32.0,23.7,15.0,77,51,28,0.00,40.00,5,3,15,0.00
2013-3-16,49.0,41.8,36.0,36.0,33.6,31.0,92,73,57,0.00,40.00,6,3,14,0.00
2013-3-17,41.0,36.8,35.0,33.0,26.6,20.0,90,69,47,0.00,40.00,8,3,15,0.00
2013-3-18,36.0,33.7,31.0,32.0,26.2,20.0,98,76,53,0.00,40.00,6,4,13,0.27
2013-3-19,59.0,41.5,32.0,39.0,27.0,9.0,99,66,21,0.00,40.00,7,4,20,0.14
2013-3-20,53.0,41.8,32.0,25.0,16.0,12.0,66,37,23,0.00,40.00,8,5,25,0.00
2013-3-21,39.0,31.9,25.0,27.0,14.5,7.0,71,49,31,0.00,40.00,7,4,22,0.00
2013-3-22,48.0,34.1,24.0,21.0,16.0,9.0,63,49,32,0.00,40.00,6,4,18,0.00
2013-3-23,54.0,38.2,23.0,26.0,20.8,17.0,81,52,28,0.00,40.00,6,3,14,0.00
2013-3-24,42.0,33.9,25.0,32.0,22.7,20.0,96,65,43,0.00,40.00,5,2,10,0.00
2013-3-25,42.0,35.3,32.0,36.0,33.2,32.0,99,92,78,0.00,40.00,3,1,7,0.55
2013-3-26,49.0,39.3,31.0,39.0,31.6,27.0,100,77,44,0.00,40.00,5,3,15,0.06
2013-3-27,49.0,40.8,33.0,32.0,27.8,23.0,81,61,37,0.00,40.00,8,4,18,0.03
2013-3-28,50.0,45.1,41.0,33.0,30.7,29.0,67,57,49,0.00,40.00,7,5,16,0.00
2013-3-29,57.0,45.4,37.0,35.0,29.1,24.0,78,56,29,0.00,40.00,6,3,14,0.00
2013-3-30,61.0,44.2,28.0,33.0,25.6,18.0,93,55,21,0.00,40.00,5,2,14,0.00
2013-3-31,47.0,43.4,35.0,46.0,36.2,-99.9,99,81,54,0.00,40.00,4,2,10,0.19
2013-4-1,60.0,45.0,35.0,47.0,34.9,16.0,100,72,41,0.00,40.00,7,3,18,0.01
2013-4-2,50.0,37.3,24.0,24.0,17.2,12.0,86,47,26,0.00,40.00,6,3,15,0.00
2013-4-3,53.0,37.2,25.0,22.0,16.9,10.0,76,47,22,0.00,40.00,7,4,19,0.00
2013-4-4,51.0,36.4,20.0,18.0,14.5,12.0,76,45,22,0.00,40.00,4,2,12,0.00
2013-4-5,69.0,50.3,34.0,35.0,26.6,18.0,87,45,22,0.00,40.00,8,4,21,0.00
2013-4-6,56.0,44.7,31.0,24.0,20.2,16.0,67,40,23,0.00,40.00,5,4,13,0.00
2013-4-7,71.0,55.1,41.0,41.0,32.7,20.0,60,43,32,0.00,40.00,8,5,16,0.00
2013-4-8,83.0,67.2,53.0,48.0,44.5,41.0,71,46,26,0.00,40.00,5,2,12,0.00
2013-4-9,86.0,73.0,60.0,56.0,50.6,45.0,63,46,33,0.00,40.00,5,3,11,0.00
2013-4-10,91.0,76.9,62.0,59.0,53.8,50.0,65,47,31,0.00,40.00,6,3,15,0.00
2013-4-11,85.0,70.9,56.0,59.0,55.4,53.0,89,61,38,0.00,40.00,10,4,20,0.00
2013-4-12,69.0,57.2,49.0,60.0,53.5,48.0,98,87,72,0.00,40.00,6,4,16,0.49
2013-4-13,69.0,56.6,44.0,48.0,36.0,29.0,95,49,29,0.00,40.00,6,4,15,0.01
2013-4-14,65.0,53.7,36.0,39.0,34.6,29.0,90,52,29,0.00,40.00,5,3,12,0.00
2013-4-15,66.0,59.0,54.0,52.0,45.0,36.0,66,60,43,0.00,40.00,8,4,16,0.00
2013-4-16,77.0,64.6,55.0,59.0,53.6,45.0,83,68,53,0.00,40.00,6,4,17,0.00
2013-4-17,70.0,63.7,56.0,65.0,57.7,52.0,100,82,63,0.00,40.00,6,3,13,0.33
2013-4-18,74.0,64.1,58.0,64.0,56.6,52.0,92,78,58,0.00,40.00,7,4,18,0.01
2013-4-19,76.0,65.5,51.0,65.0,58.4,43.0,98,78,64,0.00,40.00,7,5,22,0.70
2013-4-20,63.0,51.8,41.0,43.0,31.3,24.0,73,47,32,0.00,40.00,6,4,17,0.25
2013-4-21,55.0,43.2,30.0,30.0,25.3,20.0,85,52,29,0.00,40.00,6,3,14,0.00
2013-4-22,58.0,46.9,34.0,33.0,30.8,26.0,92,56,35,0.00,40.00,7,4,15,0.00
2013-4-23,60.0,46.8,34.0,42.0,37.0,31.0,93,70,50,0.00,40.00,4,2,9,0.00
2013-4-24,78.0,57.9,41.0,60.0,48.9,39.0,100,76,45,0.00,40.00,7,3,21,0.21
2013-4-25,64.0,52.1,41.0,48.0,34.0,29.0,78,53,28,0.00,40.00,7,3,18,0.21
2013-4-26,63.0,50.9,37.0,38.0,34.5,30.0,94,58,30,0.00,40.00,5,3,12,0.00
2013-4-27,73.0,55.3,35.0,45.0,38.8,34.0,98,60,31,0.00,40.00,5,2,12,0.00
2013-4-28,62.0,54.1,48.0,51.0,41.5,-99.9,96,68,43,0.00,40.00,6,3,16,0.23
2013-4-29,60.0,55.2,52.0,58.0,52.6,48.0,96,91,78,0.00,40.00,4,3,11,0.22
2013-4-30,59.0,56.9,54.0,56.0,54.4,53.0,100,91,84,0.00,40.00,5,2,11,0.02
2013-5-1,71.0,58.8,49.0,54.0,42.7,33.0,100,63,26,0.00,40.00,6,2,13,0.01
2013-5-2,71.0,57.6,39.0,47.0,43.7,39.0,99,64,35,0.00,40.00,5,3,13,0.00
2013-5-3,70.0,55.0,42.0,48.0,43.4,40.0,99,70,37,0.00,40.00,7,3,14,0.00
2013-5-4,69.0,55.3,39.0,47.0,41.6,38.0,98,65,36,0.00,40.00,7,3,14,0.00
2013-5-5,66.0,51.9,40.0,42.0,40.3,38.0,95,67,40,0.00,40.00,7,3,13,0.00
2013-5-6,63.0,53.5,40.0,57.0,48.5,39.0,98,84,72,0.00,40.00,6,3,12,0.02
2013-5-7,63.0,60.5,58.0,61.0,57.4,55.0,99,90,85,0.00,40.00,6,4,14,1.01
2013-5-8,71.0,59.9,53.0,60.0,55.4,50.0,100,87,54,0.00,40.00,6,2,16,1.66
2013-5-9,74.0,59.5,50.0,61.0,55.2,50.0,100,88,57,0.00,40.00,3,1,9,0.09
2013-5-10,86.0,62.5,49.0,62.0,53.4,-99.9,100,83,42,0.00,40.00,5,2,12,0.61
2013-5-11,74.0,64.1,58.0,69.0,61.8,53.0,100,93,74,0.00,40.00,3,2,10,0.84
2013-5-12,65.0,55.8,46.0,57.0,38.3,-99.9,97,58,33,0.00,40.00,5,3,16,0.30
2013-5-13,61.0,48.8,37.0,36.0,31.3,25.0,82,54,29,0.00,40.00,5,3,14,0.00
2013-5-14,63.0,47.0,31.0,40.0,34.6,31.0,99,68,31,0.00,40.00,4,2,9,0.00
2013-5-15,84.0,65.5,50.0,64.0,50.3,36.0,85,59,48,0.00,40.00,5,2,13,0.00
2013-5-16,80.0,63.8,62.0,66.0,37.7,-99.9,87,66,50,0.00,40.00,3,2,11,0.02
2013-5-17,83.0,68.4,52.0,62.0,48.9,-99.9,100,66,43,0.00,40.00,5,2,9,0.01
2013-5-18,70.0,64.6,59.0,58.0,53.6,46.0,88,69,43,0.00,40.00,6,4,14,0.00
2013-5-19,71.0,63.8,58.0,65.0,60.7,55.0,96,90,77,0.00,40.00,4,2,8,0.00
2013-5-20,83.0,71.1,61.0,68.0,65.2,61.0,100,83,59,0.00,40.00,4,2,11,0.00
2013-5-21,90.0,75.8,63.0,70.0,67.4,63.0,100,78,51,0.00,40.00,5,2,11,0.00
2013-5-22,92.0,76.5,66.0,72.0,67.4,64.0,100,79,41,0.00,40.00,5,2,15,0.18
2013-5-23,81.0,69.2,64.0,69.0,66.1,64.0,100,91,63,0.00,40.00,4,2,9,0.29
2013-5-24,64.0,55.0,47.0,64.0,47.4,33.0,100,77,55,0.00,40.00,6,4,20,0.23
2013-5-25,66.0,53.8,42.0,40.0,36.2,32.0,76,54,35,0.00,40.00,6,4,19,0.01
2013-5-26,73.0,57.6,41.0,41.0,38.0,34.0,84,52,27,0.00,40.00,6,3,16,0.00
2013-5-27,69.0,56.2,40.0,53.0,45.4,40.0,100,71,40,0.00,40.00,3,1,8,0.00
2013-5-28,78.0,64.3,54.0,65.0,58.7,52.0,100,83,61,0.00,40.00,5,2,9,0.04
2013-5-29,90.0,74.5,58.0,71.0,64.4,58.0,100,75,42,0.00,40.00,4,2,12,0.01
2013-5-30,92.0,77.6,62.0,70.0,65.9,62.0,100,71,41,0.00,40.00,3,2,7,0.00
2013-5-31,91.0,78.0,64.0,68.0,64.2,60.0,100,67,37,0.00,40.00,4,2,13,0.00
2013-6-1,92.0,79.5,67.0,69.0,65.9,63.0,88,65,46,0.00,40.00,4,2,12,0.00
2013-6-2,84.0,74.2,68.0,75.0,65.5,-99.9,97,79,63,0.00,40.00,4,2,12,0.19
2013-6-3,81.0,71.2,63.0,71.0,64.5,54.0,100,81,60,0.00,40.00,4,2,11,0.44
2013-6-4,76.0,63.7,49.0,54.0,49.2,43.0,95,63,38,0.00,40.00,6,2,12,0.01
2013-6-5,79.0,65.7,50.0,56.0,54.1,50.0,100,70,44,0.00,40.00,5,2,12,0.00
2013-6-6,68.0,64.6,63.0,65.0,57.0,47.0,100,78,54,0.00,40.00,4,3,14,0.80
2013-6-7,69.0,65.3,63.0,68.0,65.0,62.0,100,99,95,0.00,40.00,4,2,12,0.61
2013-6-8,78.0,68.7,62.0,65.0,61.4,59.0,100,79,56,0.00,40.00,4,2,10,0.01
2013-6-9,81.0,69.6,59.0,67.0,62.9,59.0,100,82,56,0.00,40.00,5,2,11,0.00
2013-6-10,83.0,71.2,67.0,75.0,69.4,65.0,100,95,78,0.00,40.00,4,2,13,0.76
2013-6-11,80.0,71.0,63.0,70.0,66.0,63.0,100,86,67,0.00,40.00,4,2,13,0.20
2013-6-12,89.0,75.7,63.0,71.0,67.1,63.0,100,78,49,0.00,40.00,3,2,10,0.02
2013-6-13,82.0,70.6,66.0,71.0,66.8,56.0,100,89,63,0.00,40.00,5,2,17,0.56
2013-6-14,79.0,69.4,60.0,58.0,54.8,52.0,89,61,40,0.00,40.00,6,4,18,0.01
2013-6-15,83.0,69.4,55.0,62.0,56.7,50.0,100,69,38,0.00,40.00,3,2,10,0.00
2013-6-16,81.0,69.6,60.0,70.0,63.0,56.0,96,81,63,0.00,40.00,4,2,10,0.02
2013-6-17,87.0,75.2,65.0,71.0,65.5,61.0,92,73,53,0.00,40.00,3,1,8,0.02
2013-6-18,78.0,71.7,65.0,73.0,68.0,64.0,98,88,74,0.00,40.00,7,1,13,0.13
2013-6-19,79.0,68.8,61.0,65.0,60.4,54.0,100,78,45,0.00,40.00,4,2,13,0.20
2013-6-20,81.0,67.3,57.0,67.0,61.4,57.0,100,84,52,0.00,40.00,5,2,14,0.00
2013-6-22,89.0,83.0,74.0,68.0,65.7,65.0,75,57,48,0.00,40.00,4,3,10,0.00
2013-6-23,89.0,76.8,64.0,73.0,67.9,64.0,100,76,50,0.00,40.00,4,2,9,0.00
2013-6-24,92.0,77.2,67.0,73.0,68.8,62.0,98,77,48,0.00,40.00,5,2,14,0.00
2013-6-25,92.0,78.8,66.0,73.0,69.3,63.0,100,76,49,0.00,40.00,3,2,15,0.11
2013-6-26,90.0,74.8,64.0,75.0,68.3,64.0,100,82,56,0.00,40.00,3,1,7,0.11
2013-6-27,85.0,74.2,66.0,75.0,69.3,66.0,100,86,64,0.00,40.00,6,2,14,0.02
2013-6-28,89.0,75.9,67.0,72.0,67.1,64.0,98,76,52,0.00,40.00,4,2,13,0.01
2013-6-29,89.0,75.8,65.0,68.0,63.9,60.0,100,71,39,0.00,40.00,3,2,8,0.02
2013-6-30,87.0,74.4,66.0,74.0,68.9,66.0,100,85,59,0.00,40.00,4,2,12,0.02
2013-7-1,85.0,76.2,70.0,73.0,69.9,68.0,100,82,60,0.00,40.00,5,2,13,0.01
2013-7-2,86.0,77.7,72.0,74.0,70.8,69.0,98,81,63,0.00,40.00,5,3,15,0.01
2013-7-3,85.0,77.3,72.0,74.0,71.2,68.0,94,82,64,0.00,40.00,4,3,10,0.03
2013-7-4,89.0,80.4,70.0,74.0,71.5,69.0,100,76,58,0.00,40.00,4,2,12,0.01
2013-7-5,91.0,81.6,71.0,74.0,71.0,69.0,98,72,53,0.00,40.00,5,3,12,0.00
2013-7-6,94.0,80.5,71.0,73.0,70.8,69.0,97,75,48,0.00,40.00,5,2,10,0.00
2013-7-7,93.0,76.5,69.0,73.0,69.3,64.0,100,81,53,0.00,40.00,6,2,18,1.14
2013-7-8,86.0,74.6,67.0,75.0,69.3,66.0,100,86,54,0.00,40.00,4,1,10,0.25
2013-7-9,85.0,75.3,69.0,74.0,70.9,69.0,100,87,65,0.00,40.00,3,2,9,0.05
2013-7-10,85.0,76.1,72.0,74.0,68.4,-99.9,98,82,60,0.00,40.00,3,2,10,0.09
2013-7-11,86.0,75.5,69.0,74.0,69.0,64.0,100,82,55,0.00,40.00,3,1,9,0.07
2013-7-12,77.0,70.2,65.0,68.0,66.0,64.0,100,87,71,0.00,40.00,5,2,11,0.55
2013-7-13,84.0,74.9,68.0,72.0,69.3,65.0,100,84,62,0.00,40.00,4,2,9,0.08
2013-7-14,91.0,79.4,70.0,75.0,71.8,69.0,100,80,54,0.00,40.00,3,2,11,0.01
2013-7-15,95.0,79.6,68.0,74.0,71.6,68.0,100,80,49,0.00,40.00,3,1,7,0.01
2013-7-16,94.0,86.3,74.0,73.0,68.8,64.0,94,59,40,0.00,40.00,4,3,10,0.00
2013-7-17,95.0,82.4,71.0,77.0,71.1,64.0,99,73,38,0.00,40.00,4,2,10,0.00
2013-7-18,98.0,86.9,74.0,78.0,75.1,72.0,100,71,47,0.00,40.00,3,2,6,0.00
2013-7-19,98.0,83.6,74.0,78.0,74.3,68.0,100,77,49,0.00,40.00,5,2,16,0.00
2013-7-20,92.0,78.6,70.0,77.0,68.6,-99.9,95,75,53,0.00,40.00,3,2,11,0.00
2013-7-21,87.0,76.2,69.0,75.0,70.1,67.0,99,83,59,0.00,40.00,3,1,7,0.02
2013-7-22,88.0,75.1,67.0,75.0,70.9,67.0,100,89,57,0.00,40.00,4,1,12,0.67
2013-7-23,86.0,76.1,70.0,73.0,70.5,67.0,100,85,57,0.00,40.00,4,2,11,0.72
2013-7-24,83.0,73.0,63.0,69.0,62.3,53.0,100,72,47,0.00,40.00,4,2,12,0.03
2013-7-25,78.0,66.3,55.0,59.0,55.5,53.0,95,71,45,0.00,40.00,5,2,10,0.00
2013-7-26,83.0,69.5,56.0,63.0,57.9,54.0,100,72,40,0.00,40.00,3,2,10,0.00
2013-7-27,84.0,71.2,60.0,73.0,65.3,59.0,100,83,62,0.00,40.00,4,2,10,0.00
2013-7-28,83.0,74.1,64.0,70.0,67.0,63.0,99,80,53,0.00,40.00,3,2,12,0.74
2013-7-29,80.0,67.8,55.0,65.0,58.5,54.0,100,76,43,0.00,40.00,3,1,9,0.74
2013-7-30,83.0,69.5,55.0,62.0,58.6,55.0,100,72,42,0.00,40.00,4,1,10,0.00
2013-7-31,81.0,69.3,61.0,69.0,64.2,61.0,100,85,62,0.00,40.00,4,1,8,0.00
2013-8-1,86.0,72.5,67.0,72.0,68.0,66.0,100,87,62,0.00,40.00,3,1,8,0.11
2013-8-2,86.0,73.3,61.0,70.0,62.8,57.0,100,74,42,0.00,40.00,3,1,10,0.01
2013-8-3,72.0,67.5,63.0,69.0,64.7,60.0,100,91,80,0.00,40.00,4,1,9,0.13
2013-8-4,80.0,68.8,59.0,64.0,58.4,50.0,100,74,41,0.00,40.00,5,2,12,0.02
2013-8-5,81.0,66.2,53.0,60.0,55.8,52.0,99,73,41,0.00,40.00,3,1,8,0.01
2013-8-6,77.0,67.9,61.0,67.0,63.6,59.0,99,87,68,0.00,40.00,3,2,8,0.52
2013-8-7,83.0,73.6,68.0,73.0,68.8,66.0,100,85,65,0.00,40.00,4,3,10,0.76
2013-8-8,85.0,74.5,67.0,75.0,71.8,67.0,100,92,69,0.00,40.00,4,1,10,0.93
2013-8-9,85.0,76.4,71.0,77.0,74.0,71.0,100,93,75,0.00,40.00,4,2,10,0.92
2013-8-10,84.0,73.7,67.0,71.0,66.5,59.0,100,81,46,0.00,40.00,3,1,5,0.03
2013-8-11,87.0,74.3,65.0,70.0,66.6,65.0,100,80,52,0.00,40.00,3,2,9,0.01
2013-8-12,87.0,74.7,66.0,72.0,67.9,66.0,100,82,55,0.00,40.00,3,1,7,0.00
2013-8-13,86.0,73.3,67.0,72.0,66.4,-99.9,100,82,58,0.00,40.00,3,2,12,0.42
2013-8-14,73.0,63.3,54.0,60.0,49.9,-99.9,93,65,50,0.00,40.00,5,3,14,0.03
2013-8-15,78.0,58.5,49.0,58.0,45.2,-99.9,99,73,40,0.00,40.00,3,1,7,0.00
2013-8-16,81.0,62.5,49.0,60.0,50.6,-99.9,99,73,41,0.00,40.00,3,1,8,0.00
2013-8-17,79.0,66.6,52.0,61.0,56.9,52.0,99,75,41,0.00,40.00,5,2,11,0.00
2013-8-18,69.0,64.2,61.0,65.0,60.1,-99.9,99,89,75,0.00,40.00,3,2,8,0.20
2013-8-19,77.0,63.5,58.0,69.0,58.1,-99.9,100,92,73,0.00,40.00,2,1,6,0.02
2013-8-20,85.0,70.4,61.0,70.0,65.0,61.0,100,86,51,0.00,40.00,3,1,6,0.01
2013-8-21,88.0,73.7,61.0,73.0,67.3,61.0,100,83,57,0.00,40.00,4,1,8,0.01
2013-8-22,87.0,75.1,66.0,71.0,67.4,63.0,99,79,54,0.00,40.00,3,2,10,0.01
2013-8-23,72.0,67.6,63.0,70.0,66.3,63.0,100,96,88,0.00,40.00,2,1,4,0.43
2013-8-24,81.0,67.8,59.0,65.0,59.9,55.0,100,80,44,0.00,40.00,4,2,8,0.01
2013-8-25,83.0,67.0,54.0,66.0,57.1,-99.9,100,76,44,0.00,40.00,3,1,7,0.00
2013-8-26,88.0,72.5,61.0,67.0,63.2,60.0,97,76,47,0.00,40.00,3,2,9,0.00
2013-8-27,90.0,76.4,67.0,74.0,68.0,63.0,92,77,55,0.00,40.00,4,2,10,0.00
2013-8-28,75.0,73.4,72.0,72.0,71.6,70.0,99,94,85,0.00,40.00,2,1,7,0.22
2013-8-29,84.0,75.2,68.0,72.0,69.2,65.0,100,84,55,0.00,40.00,3,2,9,0.01
2013-8-30,89.0,75.4,65.0,73.0,68.3,65.0,100,81,54,0.00,40.00,3,2,10,0.00
2013-8-31,91.0,77.5,69.0,75.0,70.6,68.0,98,81,54,0.00,40.00,4,2,8,0.00
2013-9-1,91.0,75.6,66.0,73.0,67.9,-99.9,100,81,56,0.00,40.00,4,2,9,0.23
2013-9-2,90.0,77.2,68.0,74.0,70.4,68.0,100,82,57,0.00,40.00,3,1,7,0.23
2013-9-3,84.0,73.1,63.0,71.0,62.5,55.0,99,73,43,0.00,40.00,4,2,11,0.00
2013-9-4,82.0,66.5,53.0,60.0,54.9,50.0,98,71,37,0.00,40.00,3,2,9,0.00
2013-9-5,83.0,67.0,55.0,64.0,56.7,50.0,99,73,41,0.00,40.00,4,2,13,0.00
2013-9-6,74.0,60.4,49.0,52.0,47.8,41.0,97,69,33,0.00,40.00,4,2,9,0.00
2013-9-7,80.0,62.4,47.0,61.0,53.5,46.0,99,77,39,0.00,40.00,3,1,7,0.00
2013-9-8,86.0,70.7,60.0,68.0,61.1,-99.9,98,76,52,0.00,40.00,4,2,12,0.03
2013-9-9,76.0,65.8,56.0,64.0,56.7,50.0,92,74,54,0.00,40.00,4,2,10,0.03
2013-9-10,94.0,78.4,65.0,73.0,68.7,63.0,98,75,50,0.00,40.00,3,2,9,0.00
2013-9-11,95.0,80.2,69.0,75.0,71.2,67.0,100,77,48,0.00,40.00,3,1,9,0.00
2013-9-12,94.0,77.5,68.0,74.0,68.3,62.0,100,77,46,0.00,40.00,4,2,15,0.00
2013-9-13,79.0,66.7,52.0,65.0,56.0,48.0,96,71,40,0.00,40.00,6,3,16,0.00
2013-9-14,69.0,55.7,45.0,49.0,45.1,41.0,97,71,41,0.00,40.00,4,2,13,0.00
2013-9-15,79.0,55.6,42.0,57.0,46.7,-99.9,98,79,40,0.00,40.00,4,1,11,0.00
2013-9-16,71.0,61.4,54.0,61.0,56.4,53.0,98,85,59,0.00,40.00,4,1,14,0.15
2013-9-17,68.0,56.3,44.0,54.0,43.9,37.0,98,68,37,0.00,40.00,4,2,10,0.02
2013-9-18,50.0,41.7,38.0,47.0,40.3,37.0,98,96,90,0.00,40.00,1,0,3,0.00
2013-9-19,78.0,60.0,45.0,58.0,51.8,44.0,98,78,48,0.00,40.00,3,1,8,0.00
2013-9-20,81.0,65.5,51.0,62.0,57.4,51.0,99,78,48,0.00,40.00,6,2,10,0.00
2013-9-21,69.0,64.7,60.0,65.0,61.3,59.0,100,89,79,0.00,40.00,4,3,14,0.56
2013-9-22,72.0,60.3,52.0,62.0,51.9,-99.9,100,79,46,0.00,40.00,5,2,14,0.50
2013-9-23,65.0,55.2,45.0,51.0,44.7,41.0,99,70,44,0.00,40.00,5,2,13,0.01
2013-9-24,73.0,53.3,38.0,49.0,44.3,38.0,99,77,36,0.00,40.00,3,1,9,0.00
2013-9-25,76.0,55.7,41.0,53.0,46.1,41.0,99,76,30,0.00,40.00,3,1,7,0.00
2013-9-26,76.0,57.4,44.0,56.0,49.2,44.0,100,79,40,0.00,40.00,3,1,9,0.00
2013-9-27,72.0,57.9,47.0,56.0,52.3,47.0,100,84,56,0.00,40.00,3,1,7,0.00
2013-9-28,68.0,58.0,48.0,58.0,52.2,47.0,100,84,53,0.00,40.00,3,1,8,0.00
2013-9-29,74.0,55.0,43.0,59.0,46.8,-99.9,100,81,36,0.00,40.00,5,1,9,0.00
2013-9-30,77.0,59.5,45.0,56.0,51.0,45.0,100,78,42,0.00,40.00,3,1,7,0.00
2013-10-1,64.0,60.6,59.0,58.0,57.1,54.0,90,88,79,0.00,40.00,1,1,4,0.00
2013-10-2,87.0,66.8,54.0,63.0,57.2,54.0,100,76,40,0.00,40.00,4,2,11,0.00
2013-10-3,84.0,68.2,56.0,64.0,60.0,55.0,99,78,48,0.00,40.00,3,1,7,0.00
2013-10-4,88.0,70.1,58.0,66.0,62.0,58.0,100,79,45,0.00,40.00,4,1,9,0.00
2013-10-5,88.0,73.4,63.0,67.0,63.4,61.0,99,74,45,0.00,40.00,3,1,9,0.00
2013-10-6,89.0,74.5,60.0,69.0,62.0,59.0,99,69,39,0.00,40.00,5,3,16,0.00
2013-10-7,74.0,63.9,50.0,67.0,58.7,47.0,96,84,65,0.00,40.00,7,3,20,0.59
2013-10-8,68.0,54.9,43.0,50.0,44.5,42.0,97,71,41,0.00,40.00,5,2,11,0.01
2013-10-9,62.0,52.6,44.0,51.0,44.4,37.0,98,77,40,0.00,40.00,4,2,9,0.00
2013-10-10,54.0,53.0,51.0,54.0,50.9,47.0,100,93,81,0.00,40.00,5,3,12,3.17
2013-10-11,60.0,56.5,53.0,59.0,56.3,53.0,100,99,98,0.00,40.00,4,3,12,2.38
2013-10-12,70.0,61.7,57.0,61.0,58.4,51.0,100,90,58,0.00,40.00,6,2,12,0.89
2013-10-13,59.0,57.0,56.0,58.0,55.7,-99.9,100,98,95,0.00,40.00,3,2,6,0.91
2013-10-14,69.0,58.9,53.0,57.0,54.3,52.0,100,86,59,0.00,40.00,4,2,9,0.01
2013-10-15,72.0,57.8,49.0,61.0,52.4,49.0,100,85,47,0.00,40.00,3,1,5,0.00
2013-10-16,70.0,61.0,51.0,61.0,56.2,49.0,98,85,67,0.00,40.00,4,1,9,0.00
2013-10-17,74.0,64.3,57.0,65.0,60.0,53.0,100,87,59,0.00,40.00,4,2,12,0.09
2013-10-18,67.0,56.1,44.0,53.0,42.3,39.0,94,62,39,0.00,40.00,4,2,14,0.07
2013-10-19,63.0,49.8,39.0,55.0,46.2,39.0,99,89,74,0.00,40.00,4,1,11,0.05
2013-10-20,64.0,49.8,39.0,41.0,35.0,-99.9,87,61,36,0.00,40.00,7,2,18,0.05
2013-10-21,68.0,49.6,34.0,46.0,37.8,33.0,98,70,35,0.00,40.00,5,2,13,0.00
2013-10-22,61.0,51.1,39.0,49.0,41.3,32.0,90,70,43,0.00,40.00,5,2,11,0.00
2013-10-23,52.0,42.1,33.0,38.0,35.3,32.0,96,79,52,0.00,40.00,4,2,10,0.00
2013-10-24,50.0,41.2,34.0,38.0,31.4,26.0,86,70,43,0.00,40.00,5,2,16,0.01
2013-10-25,54.0,39.5,28.0,35.0,29.4,27.0,95,70,40,0.00,40.00,6,2,16,0.01
2013-10-26,56.0,42.8,30.0,32.0,27.3,24.0,84,59,30,0.00,40.00,5,2,17,0.00
2013-10-27,60.0,46.4,34.0,39.0,29.2,-99.9,87,55,33,0.00,40.00,5,2,15,0.00
2013-10-28,60.0,42.2,29.0,37.0,31.8,-99.9,97,74,39,0.00,40.00,3,1,8,0.00
2013-10-29,61.0,45.0,31.0,41.0,36.2,30.0,97,75,43,0.00,40.00,3,1,7,0.00
2013-10-30,67.0,55.4,43.0,53.0,47.5,39.0,98,76,55,0.00,40.00,3,2,8,0.01
2013-10-31,67.0,61.3,56.0,60.0,56.3,53.0,98,85,69,0.00,40.00,4,3,14,0.07
2013-11-1,74.0,63.4,48.0,63.0,52.6,42.0,99,71,35,0.00,40.00,7,3,19,0.29
2013-11-2,62.0,51.1,43.0,50.0,42.8,37.0,98,75,49,0.00,40.00,6,2,14,0.03
2013-11-3,55.0,46.6,34.0,40.0,29.3,-99.9,79,55,26,0.00,40.00,7,4,17,0.00
2013-11-4,45.0,35.8,25.0,28.0,22.8,20.0,87,61,39,0.00,40.00,4,2,9,0.00
2013-11-5,54.0,42.7,30.0,42.0,34.0,25.0,92,73,50,0.00,40.00,3,1,7,0.00
2013-11-6,68.0,57.6,48.0,50.0,46.7,42.0,87,68,49,0.00,40.00,5,4,14,0.00
2013-11-7,59.0,52.6,40.0,54.0,43.0,21.0,96,71,43,0.00,40.00,7,3,21,0.24
2013-11-8,51.0,40.7,30.0,30.0,24.4,20.0,75,53,34,0.00,40.00,7,3,19,0.01
2013-11-9,54.0,39.8,26.0,32.0,24.7,-99.9,92,61,34,0.00,40.00,6,2,15,0.00
2013-11-10,62.0,47.3,40.0,35.0,27.0,25.0,60,46,32,0.00,40.00,7,4,23,0.01
2013-11-11,55.0,44.3,30.0,34.0,27.8,25.0,82,54,34,0.00,40.00,4,2,10,0.01
2013-11-12,49.0,37.9,28.0,35.0,21.3,13.0,72,52,35,0.00,40.00,10,5,25,0.01
2013-11-13,42.0,33.7,27.0,24.0,18.5,14.0,68,54,36,0.00,40.00,6,3,16,0.01
2013-11-14,57.0,37.5,23.0,21.0,16.9,13.0,70,47,18,0.00,40.00,3,2,8,0.00
2013-11-15,59.0,40.3,23.0,30.0,23.1,17.0,87,56,19,0.00,40.00,3,1,8,0.00
2013-11-16,58.0,47.9,37.0,49.0,41.1,-99.9,98,81,50,0.00,40.00,6,3,12,0.01
2013-11-17,62.0,56.8,51.0,58.0,52.9,49.0,95,87,75,0.00,40.00,6,4,17,0.02
2013-11-18,65.0,57.2,47.0,58.0,35.2,24.0,89,47,24,0.00,40.00,7,5,21,0.10
2013-11-19,48.0,41.1,29.0,27.0,24.5,23.0,77,52,41,0.00,40.00,7,4,19,0.00
2013-11-20,45.0,33.3,23.0,26.0,19.2,13.0,92,60,27,0.00,40.00,6,2,11,0.00
2013-11-21,48.0,35.8,26.0,36.0,28.8,21.0,92,76,57,0.00,40.00,4,2,8,0.00
2013-11-22,56.0,47.6,40.0,48.0,42.4,35.0,93,83,67,0.00,40.00,6,2,13,0.00
2013-11-23,52.0,39.8,28.0,44.0,23.2,-99.9,76,54,38,0.00,40.00,7,5,21,0.00
2013-11-24,32.0,25.1,20.0,10.0,6.9,3.0,58,45,35,0.00,40.00,8,6,20,0.00
2013-11-25,37.0,26.4,15.0,11.0,7.5,4.0,71,47,25,0.00,40.00,5,3,12,0.00
2013-11-26,35.0,33.2,31.0,34.0,24.6,10.0,98,75,36,0.00,40.00,5,3,10,1.44
2013-11-27,39.0,34.7,27.0,36.0,30.2,14.0,100,84,58,0.00,40.00,7,4,21,1.15
2013-11-28,35.0,29.2,23.0,22.0,14.7,11.0,74,55,42,0.00,40.00,7,4,17,0.01
2013-11-29,41.0,29.7,21.0,25.0,19.6,16.0,87,68,44,0.00,40.00,6,2,14,0.01
2013-11-30,35.0,25.7,16.0,22.0,16.4,-99.9,93,72,48,0.00,40.00,5,2,9,0.01
2013-12-1,38.0,29.1,17.0,28.0,22.5,15.0,93,77,61,0.00,40.00,3,1,4,0.00
2013-12-2,45.0,37.9,34.0,32.0,30.0,28.0,85,74,58,0.00,40.00,3,1,5,0.00
2013-12-3,51.0,39.1,32.0,36.0,32.9,30.0,95,80,54,0.00,40.00,3,1,6,0.00
2013-12-4,55.0,42.3,29.0,46.0,37.4,28.0,98,84,59,0.00,40.00,5,2,10,0.00
2013-12-5,67.0,56.0,40.0,57.0,51.8,40.0,100,87,65,0.00,40.00,4,2,10,0.01
2013-12-6,57.0,44.5,36.0,57.0,44.3,36.0,100,99,96,0.00,40.00,6,3,12,2.23
2013-12-7,39.0,33.8,27.0,36.0,27.7,-99.9,100,82,62,0.00,40.00,6,3,13,1.19
2013-12-8,28.0,25.6,23.0,27.0,21.3,17.0,97,84,70,0.00,40.00,3,2,7,0.00
2013-12-9,39.0,31.7,28.0,35.0,30.5,27.0,100,96,86,0.00,40.00,3,2,6,0.44
2013-12-10,38.0,31.1,22.0,34.0,27.4,16.0,100,86,69,0.00,40.00,5,2,11,0.17
2013-12-11,34.0,24.9,17.0,16.0,14.0,11.0,87,64,45,0.00,40.00,4,2,11,0.09
2013-12-12,31.0,24.1,19.0,21.0,9.6,3.0,87,55,35,0.00,40.00,5,3,14,0.06
2013-12-13,41.0,28.2,21.0,19.0,12.0,4.0,75,51,35,0.00,40.00,5,3,14,0.16
2013-12-14,38.0,31.1,26.0,33.0,26.7,-99.9,100,86,75,0.00,40.00,6,2,12,0.31
2013-12-15,43.0,33.1,29.0,39.0,27.5,20.0,100,81,61,0.00,40.00,6,3,18,0.35
2013-12-16,34.0,30.5,27.0,25.0,20.3,15.0,81,66,56,0.00,40.00,6,3,14,0.02
2013-12-17,38.0,31.5,26.0,29.0,26.5,22.0,95,82,69,0.00,40.00,4,2,9,0.03
2013-12-18,39.0,30.8,22.0,25.0,20.8,17.0,95,68,51,0.00,40.00,4,2,14,0.01
2013-12-19,51.0,35.3,21.0,31.0,22.9,17.0,86,63,39,0.00,40.00,3,2,9,0.00
2013-12-20,54.0,44.6,32.0,33.0,29.6,27.0,84,57,40,0.00,40.00,3,2,12,0.00
2013-12-21,65.0,55.1,46.0,56.0,41.8,-99.9,76,63,53,0.00,40.00,4,3,11,0.00
2013-12-22,67.0,62.4,57.0,62.0,57.5,54.0,100,85,66,0.00,40.00,6,3,17,0.20
2013-12-23,57.0,49.7,33.0,57.0,45.5,24.0,100,86,65,0.00,40.00,6,3,19,0.51
2013-12-24,38.0,29.9,21.0,29.0,17.7,6.0,82,61,45,0.00,40.00,7,4,19,0.01
2013-12-25,30.0,23.6,17.0,13.0,9.6,7.0,71,55,43,0.00,40.00,5,3,14,0.00
2013-12-26,44.0,31.0,24.0,23.0,16.9,12.0,72,57,39,0.00,40.00,6,3,13,0.00
2013-12-27,50.0,34.0,21.0,23.0,17.5,13.0,86,55,24,0.00,40.00,4,2,12,0.00
2013-12-28,55.0,40.4,29.0,27.0,20.8,-99.9,66,48,29,0.00,40.00,3,2,11,0.00
2013-12-29,45.0,42.8,40.0,44.0,37.0,22.0,100,84,41,0.00,40.00,4,2,11,1.09
2013-12-30,44.0,37.2,26.0,41.0,29.2,17.0,97,73,59,0.00,40.00,7,3,16,0.02
2013-12-31,41.0,30.3,23.0,27.0,18.9,13.0,83,63,44,0.00,40.00,7,3,19,0.00
2014-1-1,48.0,32.8,22.0,25.0,21.1,16.0,85,64,34,0.00,40.00,4,2,11,0.00
2014-1-2,34.0,29.2,24.0,31.0,25.8,21.0,98,87,74,0.00,40.00,3,2,11,0.00